Aérodrome :
LOGIN :

S'inscrire | Disclaimer

   EN    FR    IT 

 










Légende :    VFR   VFR Marginal   IFR   IFR Intensif   IFR Très Intensif
Visi : 
Plafond : 
>= 8 km
>= 3000ft
5 à 8 km
1000 à 3000 ft
1500m à 5 km
500 à 1000 ft
800 à 1500m
200 à 500 ft
< 800m
< 200 ft
Symboles :   Orages  Brouillard  Fortes neiges  Fortes précipitations  Vent > 20 kt
SIGMETs :   Divers  Orages  Givrage  Turbulence  Onde Orograph.  Cendres Volcan.






- Altitude de l'aérodrome : 1375 ft
- Code IATA : SCV


LRSV - Suceava Stefan cel Mare

DERNIER METAR :
  • 301030Z 34018KT 9999 SCT023 05/M00 Q1013

METARs EXPIRÉS :
  • 301000Z 33016KT 300V360 9999 SCT021 05/M00 Q1012
  • 300930Z 34017KT 9999 SCT021 05/M00 Q1012
  • 300900Z 34017KT 9999 SCT021 05/00 Q1012
  • 300830Z 32016KT 9999 BKN020 05/M00 Q1012
  • 300730Z 33021KT 9999 SCT018 06/01 Q1011

TAF TAF LRSV
Valide du 30 à 09h jusqu'au 30 à 18h UTC


300800Z 3009/3018 33020KT 9999 BKN020
TEMPO 3009/3015 33020G30KT
TEMPO 3012/3015 5000 -RA -RASN
TEMPO 3015/3018 5000 -SN BKN010 BKN020



MET'MAP, la Météo Aéronautique d'un coup d'oeil ! - Copyright ORBIFLY Décembre 2007 - Disclaimer

ORBIFLY MET'MAP TEAM :

Programmation & Développement : Alexandra Zaïnal
Sur une idée originale de : Baudouin d'Aumeries
Assistance à la programmation : Marc-Olivier Méhu
Soutien technique & logistique : Manuel Goepfert

Contact : metmap@orbifly.com




SOURCES & CREDITS :

   NOAA